createdAt,value
2023-05-02T00:00:17.171Z,35.74
2023-05-02T00:02:46.192Z,35.86
2023-05-02T00:05:14.754Z,35.87
2023-05-02T00:07:43.148Z,36.15
2023-05-02T00:10:13.661Z,36.67
2023-05-02T00:12:42.098Z,36.84
2023-05-02T00:15:11.294Z,36.94
2023-05-02T00:17:42.386Z,37.01
2023-05-02T00:20:12.686Z,36.96
2023-05-02T00:22:41.549Z,37.16
2023-05-02T00:25:16.137Z,37.12
2023-05-02T00:27:46.794Z,37.20
2023-05-02T00:30:16.181Z,37.53
2023-05-02T00:32:44.510Z,37.50
2023-05-02T00:35:13.160Z,37.62
2023-05-02T00:37:41.600Z,37.92
2023-05-02T00:40:13.266Z,38.11
2023-05-02T00:42:41.584Z,38.24
2023-05-02T00:45:12.423Z,38.29
2023-05-02T00:47:40.933Z,38.37
2023-05-02T00:50:10.469Z,38.43
2023-05-02T00:52:39.369Z,38.51
2023-05-02T00:55:08.971Z,38.63
2023-05-02T00:57:39.127Z,38.84
2023-05-02T01:00:10.800Z,38.98
2023-05-02T01:02:49.806Z,38.97
2023-05-02T01:05:26.183Z,39.23
2023-05-02T01:08:12.386Z,39.14
2023-05-02T01:10:51.186Z,39.62
2023-05-02T01:13:24.004Z,39.58
2023-05-02T01:15:54.605Z,39.56
2023-05-02T01:18:26.567Z,39.83
2023-05-02T01:21:00.452Z,39.64
2023-05-02T01:23:41.339Z,39.84
2023-05-02T01:26:22.548Z,39.86
2023-05-02T01:29:01.612Z,39.90
2023-05-02T01:31:34.433Z,39.98
2023-05-02T01:34:04.111Z,39.98
2023-05-02T01:36:35.395Z,40.01
2023-05-02T01:39:06.143Z,40.10
2023-05-02T01:41:36.186Z,40.13
2023-05-02T01:44:08.091Z,40.20
2023-05-02T01:46:41.216Z,40.12
2023-05-02T01:49:10.131Z,39.98
2023-05-02T01:51:46.058Z,39.97
2023-05-02T01:54:17.002Z,40.20
2023-05-02T01:56:46.807Z,39.97
2023-05-02T01:59:21.316Z,39.98
2023-05-02T02:01:51.656Z,39.93
2023-05-02T02:04:21.902Z,39.92
2023-05-02T02:06:56.801Z,40.14
2023-05-02T02:09:25.266Z,39.85
2023-05-02T02:12:04.753Z,39.89
2023-05-02T02:14:38.778Z,39.72
2023-05-02T02:17:13.772Z,39.79
2023-05-02T02:19:43.993Z,39.77
2023-05-02T02:22:16.941Z,39.93
2023-05-02T02:24:47.591Z,40.04
2023-05-02T02:27:16.432Z,40.17
2023-05-02T02:29:46.168Z,39.91
2023-05-02T02:32:14.773Z,40.33
2023-05-02T02:34:43.325Z,40.35
2023-05-02T02:37:19.071Z,40.61
2023-05-02T02:39:57.130Z,40.71
2023-05-02T02:42:40.981Z,40.77
2023-05-02T02:45:28.096Z,40.93
2023-05-02T02:48:12.343Z,40.75
2023-05-02T02:50:55.355Z,40.67
2023-05-02T02:53:34.961Z,40.77
2023-05-02T02:56:08.299Z,40.79
2023-05-02T02:58:52.155Z,40.83
2023-05-02T03:01:24.541Z,40.87
2023-05-02T03:03:54.664Z,40.80
2023-05-02T03:06:23.325Z,40.71
2023-05-02T03:08:51.717Z,40.66
2023-05-02T03:11:20.036Z,40.87
2023-05-02T03:13:48.720Z,40.95
2023-05-02T03:16:40.795Z,40.73
2023-05-02T03:19:09.829Z,40.80
2023-05-02T03:21:38.224Z,40.83
2023-05-02T03:24:07.153Z,40.78
2023-05-02T03:26:35.536Z,40.77
2023-05-02T03:29:03.882Z,40.74
2023-05-02T03:31:32.399Z,40.61
2023-05-02T03:34:02.234Z,40.58
2023-05-02T03:36:30.605Z,40.76
2023-05-02T03:38:59.001Z,40.68
2023-05-02T03:41:27.498Z,40.68
2023-05-02T03:43:56.079Z,40.91
2023-05-02T03:46:24.566Z,40.83
2023-05-02T03:48:53.024Z,41.22
2023-05-02T03:51:22.783Z,41.17
2023-05-02T03:53:51.114Z,41.05
2023-05-02T03:56:20.953Z,41.19
2023-05-02T03:58:50.193Z,41.31
2023-05-02T04:01:18.665Z,41.21
2023-05-02T04:03:47.133Z,41.12
2023-05-02T04:06:15.659Z,41.16
2023-05-02T04:08:45.356Z,41.19
2023-05-02T04:11:13.929Z,41.13
2023-05-02T04:13:42.301Z,41.20
2023-05-02T04:16:10.914Z,41.43
2023-05-02T04:18:39.295Z,41.37
2023-05-02T04:21:10.463Z,41.33
2023-05-02T04:23:39.086Z,41.19
2023-05-02T04:26:08.762Z,41.34
2023-05-02T04:28:37.224Z,41.47
2023-05-02T04:31:05.946Z,41.36
2023-05-02T04:33:34.374Z,41.29
2023-05-02T04:36:02.991Z,41.35
2023-05-02T04:38:31.313Z,41.70
2023-05-02T04:40:59.770Z,41.65
2023-05-02T04:43:39.075Z,41.80
2023-05-02T04:46:08.709Z,41.64
2023-05-02T04:48:37.144Z,42.12
2023-05-02T04:51:06.117Z,42.13
2023-05-02T04:53:34.691Z,42.21
2023-05-02T04:56:03.069Z,42.14
2023-05-02T04:58:31.414Z,42.07
2023-05-02T05:01:01.661Z,42.21
2023-05-02T05:03:31.312Z,42.36
2023-05-02T05:06:00.085Z,42.31
2023-05-02T05:08:28.566Z,42.30
2023-05-02T05:10:57.508Z,42.20
2023-05-02T05:13:25.929Z,42.11
2023-05-02T05:15:54.836Z,42.13
2023-05-02T05:18:24.837Z,41.83
2023-05-02T05:20:53.234Z,41.75
2023-05-02T05:23:21.630Z,41.68
2023-05-02T05:25:50.054Z,41.81
2023-05-02T05:28:18.821Z,41.72
2023-05-02T05:30:47.506Z,41.45
2023-05-02T05:33:16.065Z,41.51
2023-05-02T05:35:45.900Z,41.24
2023-05-02T05:38:14.256Z,41.11
2023-05-02T05:40:42.568Z,41.03
2023-05-02T05:43:10.946Z,41.08
2023-05-02T05:45:39.353Z,40.90
2023-05-02T05:48:08.783Z,40.81
2023-05-02T05:50:37.187Z,40.41
2023-05-02T05:53:06.864Z,40.36
2023-05-02T05:55:37.213Z,40.60
2023-05-02T05:58:06.288Z,40.27
2023-05-02T06:00:36.551Z,40.34
2023-05-02T06:03:07.274Z,40.04
2023-05-02T06:05:37.262Z,40.08
2023-05-02T06:08:07.177Z,39.67
2023-05-02T06:10:35.504Z,39.47
2023-05-02T06:13:03.791Z,38.76
2023-05-02T06:15:34.397Z,38.77
2023-05-02T06:18:02.753Z,38.76
2023-05-02T06:20:31.142Z,38.58
2023-05-02T06:22:59.498Z,38.57
2023-05-02T06:25:29.255Z,38.51
2023-05-02T06:27:57.584Z,37.80
2023-05-02T06:30:26.760Z,37.60
2023-05-02T06:32:55.163Z,37.92
2023-05-02T06:35:23.544Z,38.08
2023-05-02T06:37:51.920Z,37.63
2023-05-02T06:40:20.453Z,38.11
2023-05-02T06:42:50.226Z,37.79
2023-05-02T06:45:18.651Z,37.41
2023-05-02T06:47:47.054Z,37.24
2023-05-02T06:50:15.372Z,37.32
2023-05-02T06:52:43.742Z,37.50
2023-05-02T06:55:12.268Z,37.55
2023-05-02T06:57:40.733Z,37.92
2023-05-02T07:00:12.718Z,37.44
2023-05-02T07:02:41.218Z,37.35
2023-05-02T07:05:10.728Z,37.35
2023-05-02T07:07:39.137Z,37.32
2023-05-02T07:10:09.153Z,37.08
2023-05-02T07:12:37.489Z,37.14
2023-05-02T07:15:07.751Z,37.19
2023-05-02T07:17:37.517Z,36.68
2023-05-02T07:20:07.902Z,36.30
2023-05-02T07:22:36.286Z,35.56
2023-05-02T07:25:05.764Z,35.14
2023-05-02T07:27:34.153Z,35.44
2023-05-02T07:30:03.105Z,35.22
2023-05-02T07:32:33.012Z,35.14
2023-05-02T07:35:02.975Z,35.07
2023-05-02T07:37:35.323Z,35.02
2023-05-02T07:40:04.626Z,34.94
2023-05-02T07:42:33.732Z,34.68
2023-05-02T07:45:02.118Z,34.74
2023-05-02T07:47:30.528Z,35.01
2023-05-02T07:49:59.373Z,34.92
2023-05-02T07:52:29.372Z,35.12
2023-05-02T07:54:57.737Z,35.11
2023-05-02T07:57:27.286Z,34.93
2023-05-02T07:59:57.354Z,34.97
2023-05-02T08:02:26.233Z,34.82
2023-05-02T08:04:54.856Z,34.70
2023-05-02T08:07:23.255Z,34.42
2023-05-02T08:09:52.948Z,34.06
2023-05-02T08:12:21.450Z,34.32
2023-05-02T08:14:49.808Z,34.12
2023-05-02T08:17:18.168Z,33.87
2023-05-02T08:19:46.485Z,34.26
2023-05-02T08:22:15.206Z,34.14
2023-05-02T08:24:43.650Z,34.31
2023-05-02T08:27:13.427Z,34.10
2023-05-02T08:29:41.861Z,34.24
2023-05-02T08:32:10.278Z,34.22
2023-05-02T08:34:38.627Z,34.08
2023-05-02T08:37:10.341Z,34.25
2023-05-02T08:39:38.693Z,34.12
2023-05-02T08:42:08.860Z,33.55
2023-05-02T08:44:39.051Z,33.51
2023-05-02T08:47:07.960Z,33.55
2023-05-02T08:49:37.331Z,33.04
2023-05-02T08:52:06.911Z,33.09
2023-05-02T08:54:38.434Z,33.10
2023-05-02T08:57:07.388Z,33.34
2023-05-02T08:59:35.817Z,33.16
2023-05-02T09:02:24.948Z,33.17
2023-05-02T09:04:59.259Z,32.69
2023-05-02T09:07:28.013Z,32.74
2023-05-02T09:09:56.997Z,32.62
2023-05-02T09:12:27.673Z,32.90
2023-05-02T09:15:21.576Z,33.16
2023-05-02T09:17:51.407Z,33.15
2023-05-02T09:20:19.822Z,33.42
2023-05-02T09:22:52.948Z,33.62
2023-05-02T09:25:22.128Z,33.75
2023-05-02T09:27:52.985Z,33.77
2023-05-02T09:30:23.954Z,33.83
2023-05-02T09:32:55.975Z,33.68
2023-05-02T09:35:24.992Z,33.73
2023-05-02T09:37:55.071Z,33.63
2023-05-02T09:40:24.791Z,33.50
2023-05-02T09:42:53.672Z,33.54
2023-05-02T09:45:24.282Z,33.46
2023-05-02T09:47:54.662Z,33.42
2023-05-02T09:50:37.934Z,33.57
2023-05-02T09:53:08.439Z,33.66
2023-05-02T09:55:37.000Z,33.67
2023-05-02T09:58:06.671Z,33.40
2023-05-02T10:00:43.710Z,33.15
2023-05-02T10:03:18.544Z,33.15
2023-05-02T10:05:48.398Z,32.82
2023-05-02T10:08:19.736Z,33.07
2023-05-02T10:10:54.630Z,33.19
2023-05-02T10:13:27.121Z,33.12
2023-05-02T10:16:03.067Z,32.93
2023-05-02T10:18:42.194Z,33.04
2023-05-02T10:21:13.502Z,32.83
2023-05-02T10:23:44.549Z,32.93
2023-05-02T10:26:17.278Z,32.97
2023-05-02T10:28:46.055Z,32.74
2023-05-02T10:31:16.279Z,32.74
2023-05-02T10:33:48.060Z,32.67
2023-05-02T10:36:16.931Z,33.11
2023-05-02T10:38:46.744Z,33.36
2023-05-02T10:41:20.490Z,33.37
2023-05-02T10:43:50.590Z,33.66
2023-05-02T10:46:33.161Z,33.78
2023-05-02T10:49:08.918Z,33.83
2023-05-02T10:51:59.556Z,34.06
2023-05-02T10:54:28.275Z,33.93
2023-05-02T10:57:08.197Z,34.10
2023-05-02T10:59:39.150Z,34.11
2023-05-02T11:02:21.767Z,34.29
2023-05-02T11:05:06.660Z,34.37
2023-05-02T11:07:36.204Z,34.43
2023-05-02T11:10:34.637Z,34.38
2023-05-02T11:13:03.022Z,34.47
2023-05-02T11:15:56.953Z,34.91
2023-05-02T11:18:25.513Z,35.00
2023-05-02T11:21:29.717Z,35.32
2023-05-02T11:24:40.929Z,35.34
2023-05-02T11:27:40.632Z,35.39
2023-05-02T11:30:11.347Z,35.58
2023-05-02T11:33:16.156Z,35.67
2023-05-02T11:35:46.955Z,35.55
2023-05-02T11:38:19.794Z,35.31
2023-05-02T11:40:59.323Z,34.89
2023-05-02T11:43:31.748Z,34.53
2023-05-02T11:46:02.946Z,34.55
2023-05-02T11:48:32.816Z,34.20
2023-05-02T11:51:05.280Z,32.93
2023-05-02T11:53:41.292Z,32.32
2023-05-02T11:56:10.127Z,31.74
2023-05-02T11:58:38.518Z,31.93
2023-05-02T12:01:15.121Z,31.57
2023-05-02T12:03:44.343Z,30.81
2023-05-02T12:06:15.584Z,30.48
2023-05-02T12:08:46.721Z,30.38
2023-05-02T12:11:16.737Z,29.68
2023-05-02T12:13:50.082Z,29.06
2023-05-02T12:16:19.625Z,29.69
2023-05-02T12:18:49.516Z,29.33
2023-05-02T12:21:19.088Z,29.64
2023-05-02T12:23:49.072Z,29.79
2023-05-02T12:26:22.517Z,30.20
2023-05-02T12:28:52.722Z,29.92
2023-05-02T12:31:21.315Z,29.94
2023-05-02T12:33:50.888Z,29.93
2023-05-02T12:36:19.715Z,30.31
2023-05-02T12:38:55.159Z,30.79
2023-05-02T12:41:34.085Z,31.40
2023-05-02T12:44:02.572Z,31.38
2023-05-02T12:46:32.017Z,30.94
2023-05-02T12:49:05.768Z,31.16
2023-05-02T12:51:34.681Z,31.35
2023-05-02T12:54:05.402Z,31.15
2023-05-02T12:56:40.684Z,31.38
2023-05-02T12:59:10.496Z,31.59
2023-05-02T13:01:39.522Z,31.27
2023-05-02T13:04:07.988Z,31.60
2023-05-02T13:06:38.193Z,31.27
2023-05-02T13:09:08.288Z,31.13
2023-05-02T13:11:36.823Z,31.30
2023-05-02T13:14:06.044Z,31.28
2023-05-02T13:16:36.753Z,31.42
2023-05-02T13:19:06.221Z,30.98
2023-05-02T13:21:34.678Z,30.56
2023-05-02T13:24:04.255Z,31.05
2023-05-02T13:26:34.101Z,30.64
2023-05-02T13:29:02.510Z,30.98
2023-05-02T13:31:31.198Z,30.77
2023-05-02T13:33:59.616Z,30.42
2023-05-02T13:36:27.986Z,30.25
2023-05-02T13:38:56.480Z,31.09
2023-05-02T13:41:25.578Z,31.46
2023-05-02T13:43:55.389Z,31.76
2023-05-02T13:46:23.879Z,32.25
2023-05-02T13:48:52.228Z,32.68
2023-05-02T13:51:20.534Z,33.32
2023-05-02T13:53:48.880Z,33.62
2023-05-02T13:56:17.372Z,34.25
2023-05-02T13:58:45.790Z,34.57
2023-05-02T14:01:15.467Z,34.36
2023-05-02T14:03:44.367Z,34.68
2023-05-02T14:06:12.810Z,34.79
2023-05-02T14:08:41.246Z,34.99
2023-05-02T14:11:09.717Z,35.43
2023-05-02T14:13:38.418Z,35.67
2023-05-02T14:16:07.758Z,36.08
2023-05-02T14:18:37.538Z,35.99
2023-05-02T14:21:06.641Z,36.26
2023-05-02T14:23:35.363Z,37.01
2023-05-02T14:26:04.222Z,37.18
2023-05-02T14:28:32.633Z,37.15
2023-05-02T14:31:01.056Z,36.88
2023-05-02T14:33:29.320Z,37.33
2023-05-02T14:35:58.965Z,37.64
2023-05-02T14:38:27.410Z,37.53
2023-05-02T14:40:56.192Z,37.55
2023-05-02T14:43:24.583Z,38.10
2023-05-02T14:45:52.995Z,38.26
2023-05-02T14:48:21.393Z,38.54
2023-05-02T14:50:49.785Z,38.26
2023-05-02T14:53:19.487Z,38.30
2023-05-02T14:55:50.340Z,38.98
2023-05-02T14:58:20.754Z,39.34
2023-05-02T15:00:51.379Z,39.34
2023-05-02T15:03:22.945Z,40.17
2023-05-02T15:05:52.237Z,40.26
2023-05-02T15:08:22.827Z,40.37
2023-05-02T15:10:51.102Z,40.73
2023-05-02T15:13:19.558Z,40.58
2023-05-02T15:15:48.873Z,40.98
2023-05-02T15:18:17.481Z,40.56
2023-05-02T15:20:46.889Z,40.86
2023-05-02T15:23:15.309Z,40.76
2023-05-02T15:25:49.623Z,40.29
2023-05-02T15:28:19.145Z,40.53
2023-05-02T15:30:49.118Z,40.76
2023-05-02T15:33:17.472Z,40.81
2023-05-02T15:35:55.289Z,40.75
2023-05-02T15:38:23.988Z,40.85
2023-05-02T15:40:58.508Z,40.84
2023-05-02T15:43:28.059Z,40.81
2023-05-02T15:45:58.606Z,41.03
2023-05-02T15:48:29.556Z,40.76
2023-05-02T15:50:58.482Z,40.84
2023-05-02T15:53:27.011Z,40.68
2023-05-02T15:55:56.776Z,40.73
2023-05-02T15:58:25.103Z,40.87
2023-05-02T16:00:53.430Z,40.71
2023-05-02T16:03:21.948Z,41.40
2023-05-02T16:05:53.188Z,41.73
2023-05-02T16:08:21.820Z,41.35
2023-05-02T16:10:50.204Z,41.81
2023-05-02T16:13:19.964Z,42.09
2023-05-02T16:15:49.041Z,42.20
2023-05-02T16:18:17.438Z,42.29
2023-05-02T16:20:47.870Z,42.56
2023-05-02T16:23:16.196Z,42.80
2023-05-02T16:25:44.533Z,42.74
2023-05-02T16:28:12.817Z,43.22
2023-05-02T16:30:42.810Z,42.96
2023-05-02T16:33:11.265Z,42.95
2023-05-02T16:35:39.576Z,43.50
2023-05-02T16:38:07.896Z,43.78
2023-05-02T16:40:37.002Z,43.59
2023-05-02T16:43:05.559Z,43.60
2023-05-02T16:45:33.884Z,44.02
2023-05-02T16:48:04.400Z,44.10
2023-05-02T16:50:32.979Z,44.60
2023-05-02T16:53:01.357Z,44.69
2023-05-02T16:55:29.890Z,44.30
2023-05-02T16:57:58.306Z,44.79
2023-05-02T17:00:26.857Z,44.47
2023-05-02T17:02:57.098Z,44.77
2023-05-02T17:05:27.231Z,44.80
2023-05-02T17:07:55.585Z,44.98
2023-05-02T17:10:24.463Z,45.01
2023-05-02T17:12:54.311Z,45.23
2023-05-02T17:15:23.029Z,45.39
2023-05-02T17:17:51.467Z,45.45
2023-05-02T17:20:20.545Z,45.47
2023-05-02T17:22:50.508Z,45.60
2023-05-02T17:25:19.349Z,45.36
2023-05-02T17:27:47.730Z,45.86
2023-05-02T17:30:16.988Z,45.77
2023-05-02T17:32:45.467Z,45.63
2023-05-02T17:35:14.415Z,45.45
2023-05-02T17:37:42.778Z,45.58
2023-05-02T17:40:13.965Z,45.61
2023-05-02T17:42:45.667Z,46.16
2023-05-02T17:45:15.169Z,46.56
2023-05-02T17:47:43.586Z,46.47
2023-05-02T17:50:14.582Z,46.67
2023-05-02T17:52:43.260Z,46.55
2023-05-02T17:55:13.120Z,46.62
2023-05-02T17:57:41.459Z,47.01
2023-05-02T18:00:11.822Z,47.12
2023-05-02T18:02:40.287Z,47.20
2023-05-02T18:05:09.942Z,47.28
2023-05-02T18:07:38.419Z,47.19
2023-05-02T18:10:09.154Z,47.40
2023-05-02T18:12:39.441Z,47.71
2023-05-02T18:15:10.765Z,47.38
2023-05-02T18:17:40.216Z,47.56
2023-05-02T18:20:10.890Z,47.81
2023-05-02T18:22:40.689Z,48.15
2023-05-02T18:25:10.025Z,48.25
2023-05-02T18:27:40.156Z,49.27
2023-05-02T18:30:21.010Z,49.54
2023-05-02T18:32:50.019Z,49.59
2023-05-02T18:35:20.187Z,49.51
2023-05-02T18:37:50.880Z,49.78
2023-05-02T18:40:20.335Z,50.12
2023-05-02T18:42:51.698Z,50.16
2023-05-02T18:45:21.184Z,50.31
2023-05-02T18:47:51.518Z,50.56
2023-05-02T18:50:22.233Z,50.38
2023-05-02T18:52:51.053Z,50.21
2023-05-02T18:55:22.849Z,50.11
2023-05-02T18:57:55.285Z,50.10
2023-05-02T19:00:26.711Z,50.13
2023-05-02T19:02:55.602Z,50.21
2023-05-02T19:05:24.418Z,50.08
2023-05-02T19:07:52.835Z,49.83
2023-05-02T19:10:21.602Z,49.66
2023-05-02T19:12:51.468Z,49.84
2023-05-02T19:15:23.903Z,49.72
2023-05-02T19:17:53.660Z,49.79
2023-05-02T19:20:23.441Z,49.73
2023-05-02T19:22:55.809Z,49.73
2023-05-02T19:25:29.212Z,49.86
2023-05-02T19:27:57.920Z,49.82
2023-05-02T19:30:28.115Z,49.76
2023-05-02T19:32:56.713Z,49.98
2023-05-02T19:35:26.141Z,50.04
2023-05-02T19:37:55.514Z,50.22
2023-05-02T19:40:24.931Z,50.36
2023-05-02T19:42:54.893Z,50.27
2023-05-02T19:45:23.877Z,50.41
2023-05-02T19:47:55.077Z,50.49
2023-05-02T19:50:25.070Z,50.51
2023-05-02T19:52:54.748Z,50.65
2023-05-02T19:55:24.190Z,50.72
2023-05-02T19:57:52.884Z,50.70
2023-05-02T20:00:21.625Z,50.89
2023-05-02T20:02:51.546Z,50.92
2023-05-02T20:05:23.477Z,51.17
2023-05-02T20:07:53.423Z,51.20
2023-05-02T20:10:21.932Z,51.30
2023-05-02T20:12:50.314Z,51.12
2023-05-02T20:15:19.050Z,51.36
2023-05-02T20:17:47.646Z,51.14
2023-05-02T20:20:16.203Z,51.19
2023-05-02T20:22:46.506Z,51.08
2023-05-02T20:25:16.213Z,50.92
2023-05-02T20:27:44.867Z,51.15
2023-05-02T20:30:13.786Z,51.41
2023-05-02T20:32:42.420Z,51.73
2023-05-02T20:35:11.719Z,51.69
2023-05-02T20:37:40.099Z,51.93
2023-05-02T20:40:12.553Z,51.91
2023-05-02T20:42:42.468Z,52.13
2023-05-02T20:45:14.119Z,52.44
2023-05-02T20:47:42.568Z,52.48
2023-05-02T20:50:11.662Z,52.38
2023-05-02T20:52:40.223Z,52.53
2023-05-02T20:55:10.988Z,52.64
2023-05-02T20:57:39.479Z,52.67
2023-05-02T21:00:12.384Z,52.78
2023-05-02T21:02:41.097Z,53.19
2023-05-02T21:05:10.236Z,52.85
2023-05-02T21:07:40.569Z,52.78
2023-05-02T21:10:12.031Z,52.99
2023-05-02T21:12:40.865Z,53.11
2023-05-02T21:15:10.359Z,53.09
2023-05-02T21:17:41.023Z,53.10
2023-05-02T21:20:11.142Z,52.94
2023-05-02T21:22:39.546Z,52.91
2023-05-02T21:25:08.804Z,53.04
2023-05-02T21:27:38.518Z,53.04
2023-05-02T21:30:08.853Z,53.06
2023-05-02T21:32:37.261Z,53.09
2023-05-02T21:35:06.708Z,53.25
2023-05-02T21:37:35.128Z,53.20
2023-05-02T21:40:04.215Z,53.31
2023-05-02T21:42:32.938Z,53.36
2023-05-02T21:45:02.693Z,53.61
2023-05-02T21:47:31.090Z,53.83
2023-05-02T21:49:59.717Z,54.36
2023-05-02T21:52:28.199Z,54.52
2023-05-02T21:54:56.541Z,54.84
2023-05-02T21:57:24.966Z,55.07
2023-05-02T21:59:53.294Z,55.56
2023-05-02T22:02:23.727Z,55.71
2023-05-02T22:04:52.132Z,55.90
2023-05-02T22:07:20.528Z,56.24
2023-05-02T22:09:48.978Z,56.15
2023-05-02T22:12:17.318Z,56.27
2023-05-02T22:14:46.056Z,56.17
2023-05-02T22:17:18.485Z,56.03
2023-05-02T22:19:49.814Z,55.98
2023-05-02T22:22:18.227Z,56.08
2023-05-02T22:24:46.571Z,55.91
2023-05-02T22:27:14.864Z,55.88
2023-05-02T22:29:43.201Z,55.94
2023-05-02T22:32:11.538Z,56.09
2023-05-02T22:34:39.797Z,56.00
2023-05-02T22:37:09.915Z,55.99
2023-05-02T22:39:38.210Z,56.02
2023-05-02T22:42:06.654Z,55.77
2023-05-02T22:44:46.683Z,55.59
2023-05-02T22:47:19.232Z,55.67
2023-05-02T22:49:47.606Z,55.65
2023-05-02T22:52:18.336Z,55.44
2023-05-02T22:54:46.670Z,55.45
2023-05-02T22:57:15.027Z,55.24
2023-05-02T22:59:43.376Z,55.19
2023-05-02T23:02:12.582Z,55.10
2023-05-02T23:04:41.037Z,55.04
2023-05-02T23:07:09.393Z,55.01
2023-05-02T23:09:39.077Z,54.90
2023-05-02T23:12:07.500Z,54.73
2023-05-02T23:14:35.755Z,54.53
2023-05-02T23:17:04.248Z,54.63
2023-05-02T23:19:32.598Z,54.54
2023-05-02T23:22:01.170Z,54.48
2023-05-02T23:24:29.752Z,54.50
2023-05-02T23:26:59.565Z,54.47
2023-05-02T23:29:27.992Z,54.49
2023-05-02T23:31:56.454Z,54.51
2023-05-02T23:34:25.104Z,54.51
2023-05-02T23:36:54.089Z,54.36
2023-05-02T23:39:22.471Z,54.43
2023-05-02T23:41:50.790Z,54.45
2023-05-02T23:44:20.598Z,54.58
2023-05-02T23:46:49.110Z,54.52
2023-05-02T23:49:17.543Z,54.35
2023-05-02T23:51:46.099Z,54.32
2023-05-02T23:54:14.546Z,54.37
2023-05-02T23:56:42.802Z,54.30
2023-05-02T23:59:11.550Z,54.31
